Terminal Aerodrome Forecast
Issued by NWS

Home | Current Version | Previous Version | Text Only | Print | Product List | Glossary On
Versions: 1 2 3 4 5 6 7 8 9 10 11 12 13 14 15 16 17 18 19 20 21 22 23 24
336
FTUS45 KGJT 131742
TAFMTJ
TAF
KMTJ 131742Z 1318/1418 00000KT P6SM BKN120
     FM140400 14004KT P6SM BKN100 BKN140
     FM140900 23004KT P6SM BKN040=

USA.gov is the U.S. government's official web portal to all federal, state and local government web resources and services.